sensor_id;sensor_type;location;lat;lon;timestamp;P1;durP1;ratioP1;P2;durP2;ratioP2
20294;SDS011;10306;52.128;5.208;2023-04-24T00:02:17;1.50;;;1.50;;
20294;SDS011;10306;52.128;5.208;2023-04-24T00:04:43;1.50;;;1.40;;
20294;SDS011;10306;52.128;5.208;2023-04-24T00:07:10;1.60;;;1.60;;
20294;SDS011;10306;52.128;5.208;2023-04-24T00:09:36;1.80;;;1.70;;
20294;SDS011;10306;52.128;5.208;2023-04-24T00:12:02;1.80;;;1.70;;
20294;SDS011;10306;52.128;5.208;2023-04-24T00:14:29;1.17;;;1.10;;
20294;SDS011;10306;52.128;5.208;2023-04-24T00:16:55;1.00;;;0.90;;
20294;SDS011;10306;52.128;5.208;2023-04-24T00:19:21;0.80;;;0.80;;
20294;SDS011;10306;52.128;5.208;2023-04-24T00:21:47;1.00;;;1.00;;
20294;SDS011;10306;52.128;5.208;2023-04-24T00:24:16;1.37;;;1.37;;
20294;SDS011;10306;52.128;5.208;2023-04-24T00:26:43;2.63;;;2.13;;
20294;SDS011;10306;52.128;5.208;2023-04-24T00:29:09;1.80;;;1.70;;
20294;SDS011;10306;52.128;5.208;2023-04-24T00:31:35;1.30;;;1.30;;
20294;SDS011;10306;52.128;5.208;2023-04-24T00:34:01;1.13;;;1.13;;
20294;SDS011;10306;52.128;5.208;2023-04-24T00:36:27;1.20;;;1.20;;
20294;SDS011;10306;52.128;5.208;2023-04-24T00:38:53;1.13;;;1.13;;
20294;SDS011;10306;52.128;5.208;2023-04-24T00:41:20;1.53;;;1.43;;
20294;SDS011;10306;52.128;5.208;2023-04-24T00:43:46;1.53;;;1.27;;
20294;SDS011;10306;52.128;5.208;2023-04-24T00:46:12;2.47;;;1.27;;
20294;SDS011;10306;52.128;5.208;2023-04-24T00:48:41;1.50;;;1.40;;
20294;SDS011;10306;52.128;5.208;2023-04-24T00:51:08;1.83;;;1.40;;
20294;SDS011;10306;52.128;5.208;2023-04-24T00:53:34;2.50;;;1.40;;
20294;SDS011;10306;52.128;5.208;2023-04-24T00:56:00;1.40;;;1.40;;
20294;SDS011;10306;52.128;5.208;2023-04-24T00:58:27;1.50;;;1.40;;
20294;SDS011;10306;52.128;5.208;2023-04-24T01:00:53;1.70;;;1.60;;
20294;SDS011;10306;52.128;5.208;2023-04-24T01:03:20;1.77;;;1.70;;
20294;SDS011;10306;52.128;5.208;2023-04-24T01:05:48;2.00;;;1.90;;
20294;SDS011;10306;52.128;5.208;2023-04-24T01:08:14;2.10;;;2.00;;
20294;SDS011;10306;52.128;5.208;2023-04-24T01:10:40;2.57;;;2.47;;
20294;SDS011;10306;52.128;5.208;2023-04-24T01:13:07;2.63;;;2.43;;
20294;SDS011;10306;52.128;5.208;2023-04-24T01:15:34;3.87;;;3.67;;
20294;SDS011;10306;52.128;5.208;2023-04-24T01:18:00;3.70;;;3.50;;
20294;SDS011;10306;52.128;5.208;2023-04-24T01:20:26;3.80;;;3.50;;
20294;SDS011;10306;52.128;5.208;2023-04-24T01:22:53;4.37;;;4.10;;
20294;SDS011;10306;52.128;5.208;2023-04-24T01:25:21;4.57;;;4.20;;
20294;SDS011;10306;52.128;5.208;2023-04-24T01:27:47;4.87;;;4.10;;
20294;SDS011;10306;52.128;5.208;2023-04-24T01:30:13;4.90;;;4.50;;
20294;SDS011;10306;52.128;5.208;2023-04-24T01:32:40;4.40;;;4.10;;
20294;SDS011;10306;52.128;5.208;2023-04-24T01:35:06;5.83;;;4.87;;
20294;SDS011;10306;52.128;5.208;2023-04-24T01:37:32;4.63;;;4.23;;
20294;SDS011;10306;52.128;5.208;2023-04-24T01:39:58;5.50;;;5.10;;
20294;SDS011;10306;52.128;5.208;2023-04-24T01:42:24;5.47;;;5.07;;
20294;SDS011;10306;52.128;5.208;2023-04-24T01:44:51;5.60;;;5.30;;
20294;SDS011;10306;52.128;5.208;2023-04-24T01:47:17;5.70;;;5.30;;
20294;SDS011;10306;52.128;5.208;2023-04-24T01:49:43;5.80;;;5.30;;
20294;SDS011;10306;52.128;5.208;2023-04-24T01:52:09;5.97;;;5.50;;
20294;SDS011;10306;52.128;5.208;2023-04-24T01:54:35;7.17;;;5.90;;
20294;SDS011;10306;52.128;5.208;2023-04-24T01:57:01;6.57;;;5.93;;
20294;SDS011;10306;52.128;5.208;2023-04-24T01:59:27;6.87;;;6.30;;
20294;SDS011;10306;52.128;5.208;2023-04-24T02:01:53;7.33;;;6.50;;
20294;SDS011;10306;52.128;5.208;2023-04-24T02:04:19;6.97;;;6.27;;
20294;SDS011;10306;52.128;5.208;2023-04-24T02:06:45;6.17;;;5.77;;
20294;SDS011;10306;52.128;5.208;2023-04-24T02:09:11;6.47;;;5.70;;
20294;SDS011;10306;52.128;5.208;2023-04-24T02:11:37;6.73;;;6.00;;
20294;SDS011;10306;52.128;5.208;2023-04-24T02:14:03;6.33;;;5.87;;
20294;SDS011;10306;52.128;5.208;2023-04-24T02:16:29;6.40;;;5.90;;
20294;SDS011;10306;52.128;5.208;2023-04-24T02:18:57;6.00;;;5.47;;
20294;SDS011;10306;52.128;5.208;2023-04-24T02:21:23;5.73;;;5.20;;
20294;SDS011;10306;52.128;5.208;2023-04-24T02:23:50;5.63;;;5.13;;
20294;SDS011;10306;52.128;5.208;2023-04-24T02:26:16;6.13;;;5.73;;
20294;SDS011;10306;52.128;5.208;2023-04-24T02:28:43;6.00;;;5.60;;
20294;SDS011;10306;52.128;5.208;2023-04-24T02:31:09;5.70;;;5.33;;
20294;SDS011;10306;52.128;5.208;2023-04-24T02:33:35;5.80;;;5.37;;
20294;SDS011;10306;52.128;5.208;2023-04-24T02:36:01;6.43;;;5.87;;
20294;SDS011;10306;52.128;5.208;2023-04-24T02:38:27;5.90;;;5.40;;
20294;SDS011;10306;52.128;5.208;2023-04-24T02:40:53;4.07;;;3.77;;
20294;SDS011;10306;52.128;5.208;2023-04-24T02:43:19;3.53;;;3.23;;
20294;SDS011;10306;52.128;5.208;2023-04-24T02:45:45;4.30;;;3.17;;
20294;SDS011;10306;52.128;5.208;2023-04-24T02:48:11;2.90;;;2.70;;
20294;SDS011;10306;52.128;5.208;2023-04-24T02:50:37;5.20;;;4.20;;
20294;SDS011;10306;52.128;5.208;2023-04-24T02:53:03;3.87;;;3.67;;
20294;SDS011;10306;52.128;5.208;2023-04-24T02:55:29;3.37;;;3.17;;
20294;SDS011;10306;52.128;5.208;2023-04-24T02:57:55;2.50;;;2.20;;
20294;SDS011;10306;52.128;5.208;2023-04-24T03:00:21;2.30;;;2.20;;
20294;SDS011;10306;52.128;5.208;2023-04-24T03:02:47;2.40;;;2.30;;
20294;SDS011;10306;52.128;5.208;2023-04-24T03:05:14;2.33;;;2.23;;
20294;SDS011;10306;52.128;5.208;2023-04-24T03:07:40;2.60;;;2.50;;
20294;SDS011;10306;52.128;5.208;2023-04-24T03:10:06;2.00;;;1.90;;
20294;SDS011;10306;52.128;5.208;2023-04-24T03:12:33;2.50;;;2.40;;
20294;SDS011;10306;52.128;5.208;2023-04-24T03:14:58;2.13;;;2.03;;
20294;SDS011;10306;52.128;5.208;2023-04-24T03:17:25;2.10;;;2.00;;
20294;SDS011;10306;52.128;5.208;2023-04-24T03:19:51;2.10;;;1.80;;
20294;SDS011;10306;52.128;5.208;2023-04-24T03:22:18;1.80;;;1.70;;
20294;SDS011;10306;52.128;5.208;2023-04-24T03:24:44;1.80;;;1.63;;
20294;SDS011;10306;52.128;5.208;2023-04-24T03:27:09;1.87;;;1.40;;
20294;SDS011;10306;52.128;5.208;2023-04-24T03:29:35;2.10;;;2.00;;
20294;SDS011;10306;52.128;5.208;2023-04-24T03:32:01;1.70;;;1.60;;
20294;SDS011;10306;52.128;5.208;2023-04-24T03:34:27;1.53;;;1.53;;
20294;SDS011;10306;52.128;5.208;2023-04-24T03:36:53;1.73;;;1.63;;
20294;SDS011;10306;52.128;5.208;2023-04-24T03:39:19;1.80;;;1.70;;
20294;SDS011;10306;52.128;5.208;2023-04-24T03:41:45;1.50;;;1.50;;
20294;SDS011;10306;52.128;5.208;2023-04-24T03:44:11;1.90;;;1.80;;
20294;SDS011;10306;52.128;5.208;2023-04-24T03:46:37;1.70;;;1.60;;
20294;SDS011;10306;52.128;5.208;2023-04-24T03:49:03;2.70;;;1.77;;
20294;SDS011;10306;52.128;5.208;2023-04-24T03:51:29;2.67;;;2.00;;
20294;SDS011;10306;52.128;5.208;2023-04-24T03:53:56;1.97;;;1.87;;
20294;SDS011;10306;52.128;5.208;2023-04-24T03:56:22;1.97;;;1.87;;
20294;SDS011;10306;52.128;5.208;2023-04-24T03:58:48;2.47;;;2.27;;
20294;SDS011;10306;52.128;5.208;2023-04-24T04:01:14;2.00;;;1.90;;
20294;SDS011;10306;52.128;5.208;2023-04-24T04:03:41;2.20;;;2.10;;
20294;SDS011;10306;52.128;5.208;2023-04-24T04:06:07;2.00;;;1.90;;
20294;SDS011;10306;52.128;5.208;2023-04-24T04:08:33;4.23;;;2.30;;
20294;SDS011;10306;52.128;5.208;2023-04-24T04:10:59;2.63;;;2.43;;
20294;SDS011;10306;52.128;5.208;2023-04-24T04:13:24;3.23;;;3.03;;
20294;SDS011;10306;52.128;5.208;2023-04-24T04:15:50;2.90;;;2.57;;
20294;SDS011;10306;52.128;5.208;2023-04-24T04:18:16;2.60;;;2.50;;
20294;SDS011;10306;52.128;5.208;2023-04-24T04:20:42;2.87;;;2.67;;
20294;SDS011;10306;52.128;5.208;2023-04-24T04:23:08;2.63;;;2.53;;
20294;SDS011;10306;52.128;5.208;2023-04-24T04:25:34;2.80;;;2.60;;
20294;SDS011;10306;52.128;5.208;2023-04-24T04:28:00;3.30;;;3.10;;
20294;SDS011;10306;52.128;5.208;2023-04-24T04:30:27;3.37;;;3.03;;
20294;SDS011;10306;52.128;5.208;2023-04-24T04:32:54;3.70;;;3.47;;
20294;SDS011;10306;52.128;5.208;2023-04-24T04:35:21;3.40;;;3.20;;
20294;SDS011;10306;52.128;5.208;2023-04-24T04:37:47;3.83;;;3.60;;
20294;SDS011;10306;52.128;5.208;2023-04-24T04:40:13;3.97;;;3.67;;
20294;SDS011;10306;52.128;5.208;2023-04-24T04:42:39;4.23;;;3.83;;
20294;SDS011;10306;52.128;5.208;2023-04-24T04:45:08;4.60;;;4.13;;
20294;SDS011;10306;52.128;5.208;2023-04-24T04:47:36;4.27;;;3.97;;
20294;SDS011;10306;52.128;5.208;2023-04-24T04:50:02;4.47;;;4.07;;
20294;SDS011;10306;52.128;5.208;2023-04-24T04:52:28;4.37;;;4.07;;
20294;SDS011;10306;52.128;5.208;2023-04-24T04:54:55;4.70;;;4.30;;
20294;SDS011;10306;52.128;5.208;2023-04-24T04:57:21;4.90;;;4.50;;
20294;SDS011;10306;52.128;5.208;2023-04-24T04:59:47;5.10;;;4.70;;
20294;SDS011;10306;52.128;5.208;2023-04-24T05:02:13;4.60;;;4.20;;
20294;SDS011;10306;52.128;5.208;2023-04-24T05:04:39;4.50;;;4.10;;
20294;SDS011;10306;52.128;5.208;2023-04-24T05:07:05;6.07;;;4.13;;
20294;SDS011;10306;52.128;5.208;2023-04-24T05:09:31;3.80;;;3.50;;
20294;SDS011;10306;52.128;5.208;2023-04-24T05:11:57;3.93;;;3.57;;
20294;SDS011;10306;52.128;5.208;2023-04-24T05:14:23;4.50;;;3.80;;
20294;SDS011;10306;52.128;5.208;2023-04-24T05:16:49;4.30;;;3.90;;
20294;SDS011;10306;52.128;5.208;2023-04-24T05:19:15;5.80;;;3.90;;
20294;SDS011;10306;52.128;5.208;2023-04-24T05:21:41;4.57;;;3.70;;
20294;SDS011;10306;52.128;5.208;2023-04-24T05:24:07;2.27;;;2.17;;
20294;SDS011;10306;52.128;5.208;2023-04-24T05:26:33;2.30;;;2.20;;
20294;SDS011;10306;52.128;5.208;2023-04-24T05:29:00;2.10;;;1.53;;
20294;SDS011;10306;52.128;5.208;2023-04-24T05:31:27;2.00;;;1.50;;
20294;SDS011;10306;52.128;5.208;2023-04-24T05:33:53;1.27;;;1.17;;
20294;SDS011;10306;52.128;5.208;2023-04-24T05:36:19;1.13;;;1.13;;
20294;SDS011;10306;52.128;5.208;2023-04-24T05:38:45;1.00;;;1.00;;
20294;SDS011;10306;52.128;5.208;2023-04-24T05:41:11;1.03;;;0.80;;
20294;SDS011;10306;52.128;5.208;2023-04-24T05:43:37;1.00;;;1.00;;
20294;SDS011;10306;52.128;5.208;2023-04-24T05:46:03;0.77;;;0.77;;
20294;SDS011;10306;52.128;5.208;2023-04-24T05:48:29;0.70;;;0.70;;
20294;SDS011;10306;52.128;5.208;2023-04-24T05:50:55;0.80;;;0.80;;
20294;SDS011;10306;52.128;5.208;2023-04-24T05:53:21;0.60;;;0.60;;
20294;SDS011;10306;52.128;5.208;2023-04-24T05:55:47;0.60;;;0.60;;
20294;SDS011;10306;52.128;5.208;2023-04-24T05:58:13;0.73;;;0.73;;
20294;SDS011;10306;52.128;5.208;2023-04-24T06:00:40;1.50;;;0.80;;
20294;SDS011;10306;52.128;5.208;2023-04-24T06:03:07;1.23;;;0.90;;
20294;SDS011;10306;52.128;5.208;2023-04-24T06:05:33;0.90;;;0.90;;
20294;SDS011;10306;52.128;5.208;2023-04-24T06:08:00;1.13;;;1.13;;
20294;SDS011;10306;52.128;5.208;2023-04-24T06:10:26;1.20;;;1.10;;
20294;SDS011;10306;52.128;5.208;2023-04-24T06:12:52;1.20;;;1.10;;
20294;SDS011;10306;52.128;5.208;2023-04-24T06:15:21;1.40;;;1.37;;
20294;SDS011;10306;52.128;5.208;2023-04-24T06:17:47;1.40;;;1.40;;
20294;SDS011;10306;52.128;5.208;2023-04-24T06:20:13;1.90;;;1.80;;
20294;SDS011;10306;52.128;5.208;2023-04-24T06:22:41;2.60;;;2.50;;
20294;SDS011;10306;52.128;5.208;2023-04-24T06:25:07;3.57;;;3.37;;
20294;SDS011;10306;52.128;5.208;2023-04-24T06:27:33;6.67;;;5.77;;
20294;SDS011;10306;52.128;5.208;2023-04-24T06:30:00;8.70;;;6.13;;
20294;SDS011;10306;52.128;5.208;2023-04-24T06:32:26;10.33;;;7.40;;
20294;SDS011;10306;52.128;5.208;2023-04-24T06:34:52;10.83;;;8.33;;
20294;SDS011;10306;52.128;5.208;2023-04-24T06:37:18;12.67;;;9.17;;
20294;SDS011;10306;52.128;5.208;2023-04-24T06:39:45;10.23;;;8.50;;
20294;SDS011;10306;52.128;5.208;2023-04-24T06:42:11;13.47;;;8.67;;
20294;SDS011;10306;52.128;5.208;2023-04-24T06:44:37;13.13;;;9.30;;
20294;SDS011;10306;52.128;5.208;2023-04-24T06:47:09;18.47;;;11.13;;
20294;SDS011;10306;52.128;5.208;2023-04-24T06:49:38;13.70;;;10.40;;
20294;SDS011;10306;52.128;5.208;2023-04-24T06:52:04;24.07;;;12.13;;
20294;SDS011;10306;52.128;5.208;2023-04-24T06:54:30;18.27;;;10.77;;
20294;SDS011;10306;52.128;5.208;2023-04-24T06:56:56;16.37;;;11.10;;
20294;SDS011;10306;52.128;5.208;2023-04-24T06:59:26;21.57;;;11.77;;
20294;SDS011;10306;52.128;5.208;2023-04-24T07:01:52;17.53;;;11.40;;
20294;SDS011;10306;52.128;5.208;2023-04-24T07:04:18;16.00;;;10.60;;
20294;SDS011;10306;52.128;5.208;2023-04-24T07:06:45;18.80;;;10.33;;
20294;SDS011;10306;52.128;5.208;2023-04-24T07:09:14;15.97;;;10.87;;
20294;SDS011;10306;52.128;5.208;2023-04-24T07:11:41;19.20;;;10.50;;
20294;SDS011;10306;52.128;5.208;2023-04-24T07:14:07;16.27;;;10.97;;
20294;SDS011;10306;52.128;5.208;2023-04-24T07:16:33;21.20;;;10.57;;
20294;SDS011;10306;52.128;5.208;2023-04-24T07:18:59;15.80;;;10.47;;
20294;SDS011;10306;52.128;5.208;2023-04-24T07:21:25;17.17;;;10.83;;
20294;SDS011;10306;52.128;5.208;2023-04-24T07:23:52;15.93;;;10.73;;
20294;SDS011;10306;52.128;5.208;2023-04-24T07:26:18;14.23;;;10.37;;
20294;SDS011;10306;52.128;5.208;2023-04-24T07:28:44;13.23;;;9.37;;
20294;SDS011;10306;52.128;5.208;2023-04-24T07:31:10;16.23;;;10.10;;
20294;SDS011;10306;52.128;5.208;2023-04-24T07:33:36;17.60;;;11.03;;
20294;SDS011;10306;52.128;5.208;2023-04-24T07:36:03;14.73;;;10.50;;
20294;SDS011;10306;52.128;5.208;2023-04-24T07:38:29;19.40;;;10.13;;
20294;SDS011;10306;52.128;5.208;2023-04-24T07:40:55;16.60;;;9.67;;
20294;SDS011;10306;52.128;5.208;2023-04-24T07:43:21;18.57;;;9.43;;
20294;SDS011;10306;52.128;5.208;2023-04-24T07:45:48;19.13;;;9.20;;
20294;SDS011;10306;52.128;5.208;2023-04-24T07:48:14;17.50;;;8.17;;
20294;SDS011;10306;52.128;5.208;2023-04-24T07:50:41;17.23;;;8.50;;
20294;SDS011;10306;52.128;5.208;2023-04-24T07:53:07;17.03;;;8.10;;
20294;SDS011;10306;52.128;5.208;2023-04-24T07:55:33;15.20;;;6.43;;
20294;SDS011;10306;52.128;5.208;2023-04-24T07:57:59;15.10;;;6.40;;
20294;SDS011;10306;52.128;5.208;2023-04-24T08:00:25;19.20;;;7.03;;
20294;SDS011;10306;52.128;5.208;2023-04-24T08:02:51;12.03;;;5.83;;
20294;SDS011;10306;52.128;5.208;2023-04-24T08:05:17;11.80;;;5.50;;
20294;SDS011;10306;52.128;5.208;2023-04-24T08:07:43;14.60;;;6.20;;
20294;SDS011;10306;52.128;5.208;2023-04-24T08:10:11;21.13;;;6.10;;
20294;SDS011;10306;52.128;5.208;2023-04-24T08:12:37;14.23;;;5.10;;
20294;SDS011;10306;52.128;5.208;2023-04-24T08:15:04;13.20;;;4.47;;
20294;SDS011;10306;52.128;5.208;2023-04-24T08:17:30;15.60;;;4.40;;
20294;SDS011;10306;52.128;5.208;2023-04-24T08:19:56;8.87;;;4.07;;
20294;SDS011;10306;52.128;5.208;2023-04-24T08:22:26;10.30;;;4.50;;
20294;SDS011;10306;52.128;5.208;2023-04-24T08:24:52;7.47;;;3.53;;
20294;SDS011;10306;52.128;5.208;2023-04-24T08:27:18;10.83;;;3.70;;
20294;SDS011;10306;52.128;5.208;2023-04-24T08:29:44;9.77;;;2.70;;
20294;SDS011;10306;52.128;5.208;2023-04-24T08:32:10;15.40;;;3.40;;
20294;SDS011;10306;52.128;5.208;2023-04-24T08:34:36;10.53;;;2.63;;
20294;SDS011;10306;52.128;5.208;2023-04-24T08:37:02;6.23;;;2.60;;
20294;SDS011;10306;52.128;5.208;2023-04-24T08:39:28;8.10;;;2.80;;
20294;SDS011;10306;52.128;5.208;2023-04-24T08:41:55;4.83;;;2.33;;
20294;SDS011;10306;52.128;5.208;2023-04-24T08:44:21;5.13;;;2.23;;
20294;SDS011;10306;52.128;5.208;2023-04-24T08:46:48;4.67;;;2.63;;
20294;SDS011;10306;52.128;5.208;2023-04-24T08:49:15;7.70;;;2.10;;
20294;SDS011;10306;52.128;5.208;2023-04-24T08:51:44;5.53;;;2.20;;
20294;SDS011;10306;52.128;5.208;2023-04-24T08:54:12;2.90;;;2.27;;
20294;SDS011;10306;52.128;5.208;2023-04-24T08:56:38;6.83;;;2.20;;
20294;SDS011;10306;52.128;5.208;2023-04-24T08:59:06;9.33;;;2.77;;
20294;SDS011;10306;52.128;5.208;2023-04-24T09:01:32;11.67;;;2.60;;
20294;SDS011;10306;52.128;5.208;2023-04-24T09:04:00;2.87;;;1.83;;
20294;SDS011;10306;52.128;5.208;2023-04-24T09:06:27;5.27;;;2.20;;
20294;SDS011;10306;52.128;5.208;2023-04-24T09:08:53;6.00;;;2.20;;
20294;SDS011;10306;52.128;5.208;2023-04-24T09:11:21;3.70;;;1.97;;
20294;SDS011;10306;52.128;5.208;2023-04-24T09:13:49;5.73;;;2.13;;
20294;SDS011;10306;52.128;5.208;2023-04-24T09:16:15;8.77;;;2.17;;
20294;SDS011;10306;52.128;5.208;2023-04-24T09:18:41;5.37;;;2.83;;
20294;SDS011;10306;52.128;5.208;2023-04-24T09:21:08;6.00;;;1.97;;
20294;SDS011;10306;52.128;5.208;2023-04-24T09:23:34;5.60;;;2.20;;
20294;SDS011;10306;52.128;5.208;2023-04-24T09:26:01;6.20;;;2.20;;
20294;SDS011;10306;52.128;5.208;2023-04-24T09:28:36;7.10;;;2.50;;
20294;SDS011;10306;52.128;5.208;2023-04-24T09:33:32;5.60;;;2.13;;
20294;SDS011;10306;52.128;5.208;2023-04-24T09:35:58;4.67;;;2.17;;
20294;SDS011;10306;52.128;5.208;2023-04-24T09:38:30;2.50;;;1.60;;
20294;SDS011;10306;52.128;5.208;2023-04-24T09:40:59;3.37;;;1.60;;
20294;SDS011;10306;52.128;5.208;2023-04-24T09:43:26;6.87;;;1.70;;
20294;SDS011;10306;52.128;5.208;2023-04-24T09:45:53;2.90;;;1.70;;
20294;SDS011;10306;52.128;5.208;2023-04-24T09:48:29;4.90;;;1.90;;
20294;SDS011;10306;52.128;5.208;2023-04-24T09:50:55;5.37;;;1.60;;
20294;SDS011;10306;52.128;5.208;2023-04-24T09:53:24;3.47;;;1.70;;
20294;SDS011;10306;52.128;5.208;2023-04-24T09:55:51;5.87;;;1.73;;
20294;SDS011;10306;52.128;5.208;2023-04-24T09:58:18;5.77;;;1.77;;
20294;SDS011;10306;52.128;5.208;2023-04-24T10:00:44;3.43;;;1.80;;
20294;SDS011;10306;52.128;5.208;2023-04-24T10:03:11;3.83;;;1.77;;
20294;SDS011;10306;52.128;5.208;2023-04-24T10:05:37;4.97;;;1.57;;
20294;SDS011;10306;52.128;5.208;2023-04-24T10:08:05;3.83;;;1.53;;
20294;SDS011;10306;52.128;5.208;2023-04-24T10:10:32;6.20;;;1.50;;
20294;SDS011;10306;52.128;5.208;2023-04-24T10:12:58;2.43;;;1.60;;
20294;SDS011;10306;52.128;5.208;2023-04-24T10:15:25;3.73;;;1.67;;
20294;SDS011;10306;52.128;5.208;2023-04-24T10:17:52;2.63;;;1.10;;
20294;SDS011;10306;52.128;5.208;2023-04-24T10:20:21;5.90;;;1.23;;
20294;SDS011;10306;52.128;5.208;2023-04-24T10:22:48;1.77;;;0.90;;
20294;SDS011;10306;52.128;5.208;2023-04-24T10:25:20;2.90;;;1.00;;
20294;SDS011;10306;52.128;5.208;2023-04-24T10:27:47;2.97;;;0.70;;
20294;SDS011;10306;52.128;5.208;2023-04-24T10:30:14;1.77;;;0.67;;
20294;SDS011;10306;52.128;5.208;2023-04-24T10:32:40;0.80;;;0.80;;
20294;SDS011;10306;52.128;5.208;2023-04-24T10:35:06;2.07;;;0.70;;
20294;SDS011;10306;52.128;5.208;2023-04-24T10:37:43;1.47;;;0.70;;
20294;SDS011;10306;52.128;5.208;2023-04-24T10:40:10;2.90;;;0.87;;
20294;SDS011;10306;52.128;5.208;2023-04-24T10:42:39;0.80;;;0.70;;
20294;SDS011;10306;52.128;5.208;2023-04-24T10:45:15;1.77;;;0.80;;
20294;SDS011;10306;52.128;5.208;2023-04-24T10:47:42;1.33;;;0.80;;
20294;SDS011;10306;52.128;5.208;2023-04-24T10:50:11;1.40;;;0.83;;
20294;SDS011;10306;52.128;5.208;2023-04-24T10:52:44;1.30;;;0.70;;
20294;SDS011;10306;52.128;5.208;2023-04-24T10:55:12;3.10;;;0.90;;
20294;SDS011;10306;52.128;5.208;2023-04-24T10:57:39;1.30;;;1.10;;
20294;SDS011;10306;52.128;5.208;2023-04-24T11:03:00;2.20;;;0.70;;
20294;SDS011;10306;52.128;5.208;2023-04-24T11:08:14;3.07;;;0.83;;
20294;SDS011;10306;52.128;5.208;2023-04-24T11:10:44;1.63;;;0.80;;
20294;SDS011;10306;52.128;5.208;2023-04-24T11:13:10;2.10;;;0.90;;
20294;SDS011;10306;52.128;5.208;2023-04-24T11:15:36;1.67;;;0.90;;
20294;SDS011;10306;52.128;5.208;2023-04-24T11:18:02;2.07;;;1.13;;
20294;SDS011;10306;52.128;5.208;2023-04-24T11:20:28;2.57;;;0.90;;
20294;SDS011;10306;52.128;5.208;2023-04-24T11:22:54;2.53;;;0.80;;
20294;SDS011;10306;52.128;5.208;2023-04-24T11:25:22;0.80;;;0.80;;
20294;SDS011;10306;52.128;5.208;2023-04-24T11:27:49;3.10;;;1.00;;
20294;SDS011;10306;52.128;5.208;2023-04-24T11:30:19;2.40;;;0.83;;
20294;SDS011;10306;52.128;5.208;2023-04-24T11:32:50;1.27;;;0.80;;
20294;SDS011;10306;52.128;5.208;2023-04-24T11:35:17;2.00;;;0.90;;
20294;SDS011;10306;52.128;5.208;2023-04-24T11:37:44;0.90;;;0.60;;
20294;SDS011;10306;52.128;5.208;2023-04-24T11:40:17;2.90;;;0.80;;
20294;SDS011;10306;52.128;5.208;2023-04-24T11:42:46;0.80;;;0.80;;
20294;SDS011;10306;52.128;5.208;2023-04-24T11:45:13;0.83;;;0.50;;
20294;SDS011;10306;52.128;5.208;2023-04-24T11:47:39;1.40;;;0.60;;
20294;SDS011;10306;52.128;5.208;2023-04-24T11:50:10;4.73;;;0.87;;
20294;SDS011;10306;52.128;5.208;2023-04-24T11:52:37;1.23;;;0.73;;
20294;SDS011;10306;52.128;5.208;2023-04-24T11:55:03;1.23;;;0.73;;
20294;SDS011;10306;52.128;5.208;2023-04-24T11:57:29;1.03;;;0.70;;
20294;SDS011;10306;52.128;5.208;2023-04-24T11:59:59;3.30;;;0.70;;
20294;SDS011;10306;52.128;5.208;2023-04-24T12:02:26;2.07;;;0.90;;
20294;SDS011;10306;52.128;5.208;2023-04-24T12:04:53;1.07;;;0.70;;
20294;SDS011;10306;52.128;5.208;2023-04-24T12:07:19;1.43;;;1.10;;
20294;SDS011;10306;52.128;5.208;2023-04-24T12:12:20;2.90;;;1.03;;
20294;SDS011;10306;52.128;5.208;2023-04-24T12:14:50;3.93;;;1.00;;
20294;SDS011;10306;52.128;5.208;2023-04-24T12:17:16;2.93;;;1.07;;
20294;SDS011;10306;52.128;5.208;2023-04-24T12:19:46;2.30;;;1.00;;
20294;SDS011;10306;52.128;5.208;2023-04-24T12:22:12;2.30;;;1.20;;
20294;SDS011;10306;52.128;5.208;2023-04-24T12:24:58;1.97;;;1.00;;
20294;SDS011;10306;52.128;5.208;2023-04-24T12:27:24;2.60;;;1.10;;
20294;SDS011;10306;52.128;5.208;2023-04-24T12:29:51;1.50;;;1.23;;
20294;SDS011;10306;52.128;5.208;2023-04-24T12:32:17;2.60;;;1.27;;
20294;SDS011;10306;52.128;5.208;2023-04-24T12:34:43;4.13;;;1.33;;
20294;SDS011;10306;52.128;5.208;2023-04-24T12:37:09;2.50;;;1.40;;
20294;SDS011;10306;52.128;5.208;2023-04-24T12:39:35;3.90;;;1.50;;
20294;SDS011;10306;52.128;5.208;2023-04-24T12:42:01;3.37;;;1.00;;
20294;SDS011;10306;52.128;5.208;2023-04-24T12:44:31;5.03;;;1.77;;
20294;SDS011;10306;52.128;5.208;2023-04-24T12:46:59;4.53;;;1.50;;
20294;SDS011;10306;52.128;5.208;2023-04-24T12:49:25;3.57;;;1.43;;
20294;SDS011;10306;52.128;5.208;2023-04-24T12:51:51;1.87;;;1.10;;
20294;SDS011;10306;52.128;5.208;2023-04-24T12:54:17;5.10;;;1.40;;
20294;SDS011;10306;52.128;5.208;2023-04-24T12:56:43;3.67;;;1.50;;
20294;SDS011;10306;52.128;5.208;2023-04-24T12:59:09;5.57;;;1.43;;
20294;SDS011;10306;52.128;5.208;2023-04-24T13:01:35;5.03;;;1.40;;
20294;SDS011;10306;52.128;5.208;2023-04-24T13:04:01;5.40;;;1.77;;
20294;SDS011;10306;52.128;5.208;2023-04-24T13:06:27;4.27;;;1.27;;
20294;SDS011;10306;52.128;5.208;2023-04-24T13:08:53;3.57;;;1.80;;
20294;SDS011;10306;52.128;5.208;2023-04-24T13:11:20;8.23;;;1.73;;
20294;SDS011;10306;52.128;5.208;2023-04-24T13:13:46;2.40;;;1.50;;
20294;SDS011;10306;52.128;5.208;2023-04-24T13:16:12;5.23;;;1.37;;
20294;SDS011;10306;52.128;5.208;2023-04-24T13:18:38;5.13;;;1.80;;
20294;SDS011;10306;52.128;5.208;2023-04-24T13:21:04;4.17;;;2.03;;
20294;SDS011;10306;52.128;5.208;2023-04-24T13:23:30;4.90;;;1.97;;
20294;SDS011;10306;52.128;5.208;2023-04-24T13:25:59;6.43;;;1.83;;
20294;SDS011;10306;52.128;5.208;2023-04-24T13:28:26;9.73;;;2.13;;
20294;SDS011;10306;52.128;5.208;2023-04-24T13:30:52;6.03;;;2.17;;
20294;SDS011;10306;52.128;5.208;2023-04-24T13:33:18;6.57;;;2.10;;
20294;SDS011;10306;52.128;5.208;2023-04-24T13:35:44;9.43;;;2.07;;
20294;SDS011;10306;52.128;5.208;2023-04-24T13:38:10;4.83;;;2.07;;
20294;SDS011;10306;52.128;5.208;2023-04-24T13:40:36;11.17;;;2.23;;
20294;SDS011;10306;52.128;5.208;2023-04-24T13:43:02;5.53;;;2.33;;
20294;SDS011;10306;52.128;5.208;2023-04-24T13:45:28;4.77;;;2.07;;
20294;SDS011;10306;52.128;5.208;2023-04-24T13:47:54;2.33;;;1.70;;
20294;SDS011;10306;52.128;5.208;2023-04-24T13:50:21;4.07;;;1.93;;
20294;SDS011;10306;52.128;5.208;2023-04-24T13:52:47;6.37;;;1.83;;
20294;SDS011;10306;52.128;5.208;2023-04-24T13:55:14;3.00;;;1.50;;
20294;SDS011;10306;52.128;5.208;2023-04-24T13:57:40;4.03;;;1.93;;
20294;SDS011;10306;52.128;5.208;2023-04-24T14:00:06;3.37;;;1.97;;
20294;SDS011;10306;52.128;5.208;2023-04-24T14:02:35;3.53;;;2.00;;
20294;SDS011;10306;52.128;5.208;2023-04-24T14:05:01;2.67;;;1.90;;
20294;SDS011;10306;52.128;5.208;2023-04-24T14:07:28;8.07;;;1.97;;
20294;SDS011;10306;52.128;5.208;2023-04-24T14:09:55;4.43;;;2.00;;
20294;SDS011;10306;52.128;5.208;2023-04-24T14:12:21;4.90;;;2.37;;
20294;SDS011;10306;52.128;5.208;2023-04-24T14:14:47;11.40;;;3.00;;
20294;SDS011;10306;52.128;5.208;2023-04-24T14:17:13;4.23;;;2.10;;
20294;SDS011;10306;52.128;5.208;2023-04-24T14:19:39;3.63;;;2.10;;
20294;SDS011;10306;52.128;5.208;2023-04-24T14:22:05;6.77;;;2.37;;
20294;SDS011;10306;52.128;5.208;2023-04-24T14:24:31;2.13;;;1.83;;
20294;SDS011;10306;52.128;5.208;2023-04-24T14:26:57;4.13;;;2.10;;
20294;SDS011;10306;52.128;5.208;2023-04-24T14:29:23;3.47;;;1.77;;
20294;SDS011;10306;52.128;5.208;2023-04-24T14:31:50;6.13;;;2.00;;
20294;SDS011;10306;52.128;5.208;2023-04-24T14:34:16;5.13;;;1.93;;
20294;SDS011;10306;52.128;5.208;2023-04-24T14:36:43;4.53;;;2.30;;
20294;SDS011;10306;52.128;5.208;2023-04-24T14:39:09;2.40;;;1.97;;
20294;SDS011;10306;52.128;5.208;2023-04-24T14:41:35;4.37;;;2.47;;
20294;SDS011;10306;52.128;5.208;2023-04-24T14:44:02;9.70;;;2.57;;
20294;SDS011;10306;52.128;5.208;2023-04-24T14:46:29;4.37;;;2.10;;
20294;SDS011;10306;52.128;5.208;2023-04-24T14:48:58;5.43;;;2.37;;
20294;SDS011;10306;52.128;5.208;2023-04-24T14:51:24;7.90;;;2.63;;
20294;SDS011;10306;52.128;5.208;2023-04-24T14:53:50;7.03;;;3.00;;